createdAt,value
2017-11-01T00:01:42.850Z,95.00
2017-11-01T00:04:10.298Z,95.00
2017-11-01T00:06:37.757Z,95.20
2017-11-01T00:09:05.201Z,94.50
2017-11-01T00:11:33.444Z,94.70
2017-11-01T00:14:00.994Z,94.70
2017-11-01T00:16:28.448Z,95.20
2017-11-01T00:18:55.907Z,95.80
2017-11-01T00:21:23.372Z,95.00
2017-11-01T00:23:50.870Z,95.20
2017-11-01T00:26:19.153Z,94.80
2017-11-01T00:28:47.408Z,94.70
2017-11-01T00:31:15.665Z,94.50
2017-11-01T00:33:43.131Z,94.50
2017-11-01T00:36:10.583Z,94.10
2017-11-01T00:38:38.037Z,94.40
2017-11-01T00:41:05.507Z,94.30
2017-11-01T00:43:33.701Z,94.60
2017-11-01T00:46:01.901Z,95.10
2017-11-01T00:48:29.360Z,95.00
2017-11-01T00:50:56.797Z,95.10
2017-11-01T00:53:24.255Z,95.00
2017-11-01T00:55:51.708Z,95.30
2017-11-01T00:58:19.154Z,95.10
2017-11-01T01:00:47.389Z,95.50
2017-11-01T01:03:14.825Z,95.40
2017-11-01T01:05:42.282Z,95.50
2017-11-01T01:08:09.717Z,95.40
2017-11-01T01:10:37.427Z,95.30
2017-11-01T01:13:04.868Z,95.30
2017-11-01T01:15:32.369Z,95.70
2017-11-01T01:17:59.806Z,95.30
2017-11-01T01:20:27.232Z,95.60
2017-11-01T01:22:54.711Z,95.30
2017-11-01T01:25:22.177Z,95.60
2017-11-01T01:27:49.625Z,95.60
2017-11-01T01:30:17.069Z,95.60
2017-11-01T01:32:45.310Z,95.60
2017-11-01T01:35:13.548Z,95.50
2017-11-01T01:37:41.002Z,95.50
2017-11-01T01:40:08.442Z,96.10
2017-11-01T01:42:35.890Z,96.20
2017-11-01T01:45:03.359Z,96.40
2017-11-01T01:47:30.812Z,95.80
2017-11-01T01:49:58.811Z,96.20
2017-11-01T01:52:26.262Z,95.90
2017-11-01T01:54:53.715Z,95.90
2017-11-01T01:57:21.151Z,95.70
2017-11-01T01:59:48.606Z,95.80
2017-11-01T02:02:16.677Z,96.20
2017-11-01T02:04:44.133Z,96.70
2017-11-01T02:07:13.027Z,96.20
2017-11-01T02:09:40.480Z,96.10
2017-11-01T02:12:07.960Z,95.90
2017-11-01T02:14:35.428Z,96.30
2017-11-01T02:17:02.882Z,96.40
2017-11-01T02:19:30.368Z,96.30
2017-11-01T02:21:57.802Z,96.40
2017-11-01T02:24:25.262Z,96.50
2017-11-01T02:26:52.719Z,96.80
2017-11-01T02:29:20.214Z,96.40
2017-11-01T02:31:47.652Z,96.30
2017-11-01T02:34:15.110Z,96.30
2017-11-01T02:36:42.556Z,95.60
2017-11-01T02:39:10.751Z,96.40
2017-11-01T02:41:38.984Z,96.40
2017-11-01T02:44:06.440Z,96.40
2017-11-01T02:46:33.902Z,96.10
2017-11-01T02:49:02.126Z,96.30
2017-11-01T02:51:30.359Z,96.60
2017-11-01T02:53:57.786Z,96.60
2017-11-01T02:56:25.402Z,96.70
2017-11-01T02:58:53.781Z,96.20
2017-11-01T03:01:21.237Z,96.10
2017-11-01T03:03:48.677Z,96.10
2017-11-01T03:06:16.161Z,96.10
2017-11-01T03:08:44.406Z,95.70
2017-11-01T03:11:12.349Z,95.70
2017-11-01T03:13:39.794Z,95.50
2017-11-01T03:16:07.233Z,95.50
2017-11-01T03:18:35.436Z,95.80
2017-11-01T03:21:02.861Z,95.80
2017-11-01T03:23:31.070Z,95.50
2017-11-01T03:25:58.528Z,95.50
2017-11-01T03:28:25.994Z,96.20
2017-11-01T03:30:53.449Z,96.50
2017-11-01T03:33:20.888Z,96.10
2017-11-01T03:35:48.346Z,95.80
2017-11-01T03:38:15.817Z,96.40
2017-11-01T03:40:43.265Z,96.20
2017-11-01T03:43:10.713Z,95.90
2017-11-01T03:45:38.236Z,96.60
2017-11-01T03:48:05.665Z,96.30
2017-11-01T03:50:33.096Z,95.80
2017-11-01T03:53:00.574Z,95.50
2017-11-01T03:55:28.027Z,96.00
2017-11-01T03:57:55.472Z,96.30
2017-11-01T04:00:22.926Z,96.40
2017-11-01T04:02:50.412Z,95.90
2017-11-01T04:05:17.851Z,96.00
2017-11-01T04:07:45.301Z,96.00
2017-11-01T04:10:12.739Z,96.20
2017-11-01T04:12:40.965Z,96.10
2017-11-01T04:15:08.998Z,96.10
2017-11-01T04:17:36.450Z,96.50
2017-11-01T04:20:04.353Z,96.00
2017-11-01T04:22:31.834Z,95.80
2017-11-01T04:24:59.298Z,95.90
2017-11-01T04:27:26.741Z,96.70
2017-11-01T04:29:54.184Z,96.60
2017-11-01T04:32:21.662Z,96.30
2017-11-01T04:34:49.102Z,96.30
2017-11-01T04:37:16.563Z,96.70
2017-11-01T04:39:44.013Z,97.00
2017-11-01T04:42:12.397Z,96.80
2017-11-01T04:44:39.865Z,96.70
2017-11-01T04:47:07.318Z,96.60
2017-11-01T04:49:37.677Z,96.80
2017-11-01T04:52:07.781Z,96.50
2017-11-01T04:54:36.265Z,96.90
2017-11-01T04:57:04.500Z,96.60
2017-11-01T04:59:31.955Z,96.40
2017-11-01T05:02:01.283Z,96.20
2017-11-01T05:04:28.765Z,96.40
2017-11-01T05:06:56.209Z,96.30
2017-11-01T05:09:26.521Z,96.40
2017-11-01T05:11:53.986Z,96.60
2017-11-01T05:14:21.444Z,96.60
2017-11-01T05:17:03.470Z,97.10
2017-11-01T05:19:30.925Z,96.90
2017-11-01T05:21:59.181Z,96.50
2017-11-01T05:24:30.402Z,96.40
2017-11-01T05:26:57.853Z,96.50
2017-11-01T05:29:25.290Z,96.60
2017-11-01T05:31:52.753Z,97.20
2017-11-01T05:34:20.210Z,97.30
2017-11-01T05:36:47.693Z,98.00
2017-11-01T05:39:15.177Z,97.40
2017-11-01T05:41:42.618Z,97.90
2017-11-01T05:44:10.057Z,97.50
2017-11-01T05:46:37.510Z,97.20
2017-11-01T05:49:04.967Z,97.30
2017-11-01T05:51:32.426Z,97.10
2017-11-01T05:53:59.902Z,97.20
2017-11-01T05:56:27.362Z,97.20
2017-11-01T05:58:54.808Z,97.40
2017-11-01T06:01:22.290Z,97.30
2017-11-01T06:03:49.729Z,97.50
2017-11-01T06:06:17.203Z,97.80
2017-11-01T06:08:44.635Z,97.90
2017-11-01T06:11:12.633Z,97.40
2017-11-01T06:13:40.649Z,97.90
2017-11-01T06:16:08.858Z,96.90
2017-11-01T06:18:36.317Z,96.80
2017-11-01T06:21:03.774Z,96.90
2017-11-01T06:23:31.247Z,96.50
2017-11-01T06:25:58.721Z,96.90
2017-11-01T06:28:26.181Z,96.90
2017-11-01T06:30:53.614Z,97.10
2017-11-01T06:33:21.201Z,97.50
2017-11-01T06:35:48.640Z,97.30
2017-11-01T06:38:16.097Z,97.10
2017-11-01T06:40:43.556Z,96.60
2017-11-01T06:43:11.014Z,96.50
2017-11-01T06:45:38.489Z,96.90
2017-11-01T06:48:07.497Z,96.70
2017-11-01T06:50:35.730Z,96.80
2017-11-01T06:53:03.202Z,96.80
2017-11-01T06:55:30.696Z,96.70
2017-11-01T06:57:58.152Z,96.70
2017-11-01T07:00:42.416Z,96.50
2017-11-01T07:03:12.482Z,97.00
2017-11-01T07:05:39.919Z,97.00
2017-11-01T07:08:07.400Z,96.90
2017-11-01T07:10:34.867Z,96.60
2017-11-01T07:13:02.321Z,96.90
2017-11-01T07:15:29.792Z,96.90
2017-11-01T07:17:57.267Z,97.00
2017-11-01T07:20:25.509Z,96.50
2017-11-01T07:22:52.976Z,96.40
2017-11-01T07:25:20.428Z,95.80
2017-11-01T07:27:47.887Z,96.40
2017-11-01T07:30:15.367Z,96.40
2017-11-01T07:32:43.569Z,97.40
2017-11-01T07:35:11.006Z,97.20
2017-11-01T07:37:39.214Z,95.80
2017-11-01T07:40:06.761Z,95.80
2017-11-01T07:42:34.947Z,96.20
2017-11-01T07:45:02.387Z,96.20
2017-11-01T07:47:29.842Z,96.40
2017-11-01T07:49:58.046Z,95.60
2017-11-01T07:52:25.479Z,95.60
2017-11-01T07:54:52.925Z,95.60
2017-11-01T07:57:21.127Z,95.90
2017-11-01T07:59:48.572Z,95.90
2017-11-01T08:02:16.020Z,95.90
2017-11-01T08:04:43.483Z,96.10
2017-11-01T08:07:10.915Z,95.50
2017-11-01T08:09:38.405Z,95.00
2017-11-01T08:12:05.852Z,95.30
2017-11-01T08:14:33.320Z,95.30
2017-11-01T08:17:00.804Z,95.60
2017-11-01T08:19:28.266Z,95.00
2017-11-01T08:21:55.721Z,95.50
2017-11-01T08:24:23.191Z,95.70
2017-11-01T08:26:50.645Z,95.70
2017-11-01T08:29:18.085Z,95.40
2017-11-01T08:31:45.542Z,95.40
2017-11-01T08:34:13.017Z,94.80
2017-11-01T08:36:40.461Z,94.30
2017-11-01T08:39:08.453Z,94.70
2017-11-01T08:41:35.900Z,94.80
2017-11-01T08:44:03.341Z,94.80
2017-11-01T08:46:30.809Z,95.10
2017-11-01T08:48:58.281Z,94.80
2017-11-01T08:51:25.747Z,94.40
2017-11-01T08:53:53.976Z,94.60
2017-11-01T08:56:22.175Z,94.60
2017-11-01T08:58:49.633Z,94.60
2017-11-01T09:01:17.090Z,94.50
2017-11-01T09:03:44.544Z,94.50
2017-11-01T09:06:13.669Z,94.20
2017-11-01T09:08:41.116Z,94.10
2017-11-01T09:11:08.583Z,93.50
2017-11-01T09:13:36.064Z,92.90
2017-11-01T09:16:03.513Z,92.50
2017-11-01T09:18:30.958Z,92.30
2017-11-01T09:20:58.435Z,92.30
2017-11-01T09:23:26.694Z,92.80
2017-11-01T09:25:54.157Z,92.90
2017-11-01T09:28:21.602Z,92.30
2017-11-01T09:30:49.090Z,91.90
2017-11-01T09:33:16.526Z,91.80
2017-11-01T09:35:44.011Z,91.30
2017-11-01T09:38:11.471Z,91.00
2017-11-01T09:40:38.927Z,90.30
2017-11-01T09:43:06.373Z,90.20
2017-11-01T09:45:33.839Z,89.70
2017-11-01T09:48:01.346Z,90.50
2017-11-01T09:50:28.770Z,90.60
2017-11-01T09:52:57.118Z,90.30
2017-11-01T09:55:24.583Z,90.50
2017-11-01T09:57:52.037Z,90.90
2017-11-01T10:00:19.518Z,91.00
2017-11-01T10:02:47.699Z,90.80
2017-11-01T10:05:15.963Z,90.70
2017-11-01T10:07:44.182Z,91.00
2017-11-01T10:10:11.654Z,91.00
2017-11-01T10:12:39.131Z,91.30
2017-11-01T10:15:06.593Z,90.70
2017-11-01T10:17:34.054Z,90.90
2017-11-01T10:20:01.512Z,90.50
2017-11-01T10:22:28.970Z,90.60
2017-11-01T10:24:56.458Z,90.90
2017-11-01T10:27:24.734Z,90.90
2017-11-01T10:29:52.958Z,91.00
2017-11-01T10:32:20.417Z,91.00
2017-11-01T10:34:47.873Z,90.30
2017-11-01T10:37:15.436Z,88.30
2017-11-01T10:39:42.882Z,86.80
2017-11-01T10:42:10.565Z,87.60
2017-11-01T10:44:37.981Z,86.40
2017-11-01T10:47:05.501Z,86.30
2017-11-01T10:49:33.024Z,85.20
2017-11-01T10:52:00.469Z,85.30
2017-11-01T10:54:27.922Z,85.00
2017-11-01T10:56:55.368Z,85.20
2017-11-01T10:59:22.907Z,84.50
2017-11-01T11:01:51.155Z,85.20
2017-11-01T11:04:18.594Z,85.10
2017-11-01T11:06:46.098Z,85.00
2017-11-01T11:09:14.276Z,83.20
2017-11-01T11:11:41.729Z,83.10
2017-11-01T11:14:09.194Z,79.40
2017-11-01T11:16:37.397Z,72.40
2017-11-01T11:19:04.831Z,72.20
2017-11-01T11:21:32.284Z,71.60
2017-11-01T11:24:00.592Z,62.20
2017-11-01T11:26:28.038Z,61.90
2017-11-01T11:28:55.483Z,59.50
2017-11-01T11:31:22.950Z,59.10
2017-11-01T11:33:50.612Z,57.90
2017-11-01T11:36:18.100Z,57.40
2017-11-01T11:38:45.553Z,56.20
2017-11-01T11:41:13.254Z,57.00
2017-11-01T11:43:40.821Z,57.60
2017-11-01T11:46:09.047Z,59.50
2017-11-01T11:48:36.485Z,59.40
2017-11-01T11:51:03.958Z,60.10
2017-11-01T11:53:31.406Z,61.80
2017-11-01T11:55:58.864Z,64.20
2017-11-01T11:58:26.335Z,65.70
2017-11-01T12:00:53.773Z,65.00
2017-11-01T12:03:21.226Z,67.60
2017-11-01T12:05:48.693Z,66.00
2017-11-01T12:08:16.152Z,67.60
2017-11-01T12:10:43.632Z,70.30
2017-11-01T12:13:11.087Z,70.40
2017-11-01T12:15:38.599Z,68.30
2017-11-01T12:18:06.801Z,67.80
2017-11-01T12:20:34.261Z,67.80
2017-11-01T12:23:01.743Z,64.70
2017-11-01T12:25:29.186Z,62.80
2017-11-01T12:27:57.781Z,60.00
2017-11-01T12:30:25.252Z,57.60
2017-11-01T12:32:52.716Z,57.80
2017-11-01T12:35:20.169Z,56.00
2017-11-01T12:37:47.657Z,54.70
2017-11-01T12:40:15.085Z,51.90
2017-11-01T12:42:42.710Z,52.20
2017-11-01T12:45:10.174Z,54.00
2017-11-01T12:47:37.643Z,55.10
2017-11-01T12:50:05.133Z,58.20
2017-11-01T12:52:32.573Z,59.70
2017-11-01T12:55:00.030Z,62.90
2017-11-01T12:57:27.489Z,64.70
2017-11-01T12:59:54.950Z,67.60
2017-11-01T13:02:22.997Z,67.30
2017-11-01T13:04:50.453Z,66.50
2017-11-01T13:07:17.963Z,66.60
2017-11-01T13:09:45.397Z,63.30
2017-11-01T13:12:13.485Z,61.00
2017-11-01T13:14:40.930Z,62.30
2017-11-01T13:17:08.389Z,62.50
2017-11-01T13:19:35.865Z,59.50
2017-11-01T13:22:03.321Z,59.70
2017-11-01T13:24:30.768Z,59.90
2017-11-01T13:26:58.196Z,59.40
2017-11-01T13:29:25.650Z,56.40
2017-11-01T13:31:53.129Z,56.20
2017-11-01T13:34:20.565Z,57.80
2017-11-01T13:36:48.042Z,59.30
2017-11-01T13:39:15.517Z,60.10
2017-11-01T13:41:43.022Z,61.30
2017-11-01T13:44:10.462Z,61.80
2017-11-01T13:46:37.897Z,61.10
2017-11-01T13:49:06.168Z,62.60
2017-11-01T13:51:33.612Z,61.80
2017-11-01T13:54:01.120Z,60.80
2017-11-01T13:56:29.379Z,58.10
2017-11-01T13:58:57.598Z,56.30
2017-11-01T14:01:25.044Z,56.30
2017-11-01T14:03:52.468Z,55.70
2017-11-01T14:06:20.657Z,55.20
2017-11-01T14:08:48.116Z,55.10
2017-11-01T14:11:15.582Z,54.60
2017-11-01T14:13:43.024Z,55.40
2017-11-01T14:16:10.473Z,56.60
2017-11-01T14:18:38.684Z,56.90
2017-11-01T14:21:06.141Z,56.90
2017-11-01T14:23:33.599Z,58.90
2017-11-01T14:26:01.041Z,59.00
2017-11-01T14:28:28.498Z,59.60
2017-11-01T14:30:55.978Z,58.90
2017-11-01T14:33:23.450Z,59.00
2017-11-01T14:35:50.887Z,59.50
2017-11-01T14:38:18.350Z,59.60
2017-11-01T14:40:45.810Z,60.20
2017-11-01T14:43:13.597Z,60.80
2017-11-01T14:45:41.036Z,61.80
2017-11-01T14:48:08.486Z,60.10
2017-11-01T14:50:35.933Z,60.10
2017-11-01T14:53:03.390Z,61.10
2017-11-01T14:55:30.859Z,63.20
2017-11-01T14:57:58.310Z,62.20
2017-11-01T15:00:25.781Z,61.50
2017-11-01T15:02:53.245Z,61.50
2017-11-01T15:05:20.733Z,61.70
2017-11-01T15:07:48.160Z,63.10
2017-11-01T15:10:17.056Z,63.00
2017-11-01T15:12:44.508Z,63.00
2017-11-01T15:15:11.958Z,63.10
2017-11-01T15:17:39.413Z,63.10
2017-11-01T15:20:06.864Z,63.00
2017-11-01T15:22:34.310Z,63.70
2017-11-01T15:25:01.760Z,63.30
2017-11-01T15:27:29.973Z,66.30
2017-11-01T15:29:57.431Z,66.30
2017-11-01T15:32:24.867Z,66.00
2017-11-01T15:34:52.345Z,67.20
2017-11-01T15:37:19.784Z,68.40
2017-11-01T15:39:47.245Z,66.50
2017-11-01T15:42:14.705Z,66.60
2017-11-01T15:44:42.186Z,66.30
2017-11-01T15:47:09.669Z,65.80
2017-11-01T15:49:37.381Z,65.90
2017-11-01T15:52:04.847Z,66.30
2017-11-01T15:54:32.362Z,66.10
2017-11-01T15:57:00.598Z,66.90
2017-11-01T15:59:28.088Z,66.90
2017-11-01T16:01:55.522Z,66.90
2017-11-01T16:04:23.205Z,67.50
2017-11-01T16:06:51.473Z,69.10
2017-11-01T16:09:18.929Z,69.00
2017-11-01T16:11:46.405Z,70.60
2017-11-01T16:14:13.842Z,70.50
2017-11-01T16:16:41.295Z,70.70
2017-11-01T16:19:08.757Z,69.50
2017-11-01T16:21:36.246Z,71.60
2017-11-01T16:24:04.450Z,69.70
2017-11-01T16:26:31.881Z,69.70
2017-11-01T16:29:00.113Z,70.30
2017-11-01T16:31:27.582Z,70.30
2017-11-01T16:33:55.061Z,70.20
2017-11-01T16:36:23.259Z,71.00
2017-11-01T16:38:50.710Z,70.90
2017-11-01T16:41:18.161Z,72.20
2017-11-01T16:43:46.353Z,71.00
2017-11-01T16:46:13.804Z,71.00
2017-11-01T16:48:41.241Z,72.10
2017-11-01T16:51:09.447Z,72.50
2017-11-01T16:53:36.881Z,72.30
2017-11-01T16:56:05.078Z,73.40
2017-11-01T16:58:32.527Z,73.40
2017-11-01T17:01:00.006Z,74.40
2017-11-01T17:03:27.433Z,74.50
2017-11-01T17:05:55.699Z,74.00
2017-11-01T17:08:23.145Z,74.00
2017-11-01T17:10:50.607Z,74.10
2017-11-01T17:13:18.064Z,75.60
2017-11-01T17:15:45.503Z,75.60
2017-11-01T17:18:13.853Z,75.60
2017-11-01T17:20:41.314Z,75.90
2017-11-01T17:23:08.772Z,77.10
2017-11-01T17:25:36.207Z,77.00
2017-11-01T17:28:03.843Z,77.80
2017-11-01T17:30:32.298Z,78.30
2017-11-01T17:32:59.939Z,78.20
2017-11-01T17:35:27.649Z,77.70
2017-11-01T17:37:56.059Z,78.00
2017-11-01T17:40:23.732Z,77.10
2017-11-01T17:42:51.402Z,77.50
2017-11-01T17:45:19.055Z,77.60
2017-11-01T17:47:46.717Z,77.70
2017-11-01T17:50:14.462Z,77.50
2017-11-01T17:52:42.144Z,76.50
2017-11-01T17:55:09.743Z,76.90
2017-11-01T17:57:37.288Z,77.00
2017-11-01T18:00:04.965Z,76.90
2017-11-01T18:02:32.575Z,77.20
2017-11-01T18:05:00.255Z,76.80
2017-11-01T18:07:27.898Z,76.10
2017-11-01T18:09:55.532Z,75.80
2017-11-01T18:12:23.976Z,77.10
2017-11-01T18:14:51.734Z,77.00
2017-11-01T18:17:19.284Z,77.30
2017-11-01T18:19:46.958Z,77.10
2017-11-01T18:22:14.709Z,77.20
2017-11-01T18:24:42.200Z,76.50
2017-11-01T18:27:09.690Z,76.40
2017-11-01T18:29:37.229Z,76.00
2017-11-01T18:32:04.669Z,75.00
2017-11-01T18:34:32.145Z,75.40
2017-11-01T18:36:59.595Z,75.10
2017-11-01T18:39:27.070Z,74.80
2017-11-01T18:41:54.541Z,74.50
2017-11-01T18:44:23.088Z,74.40
2017-11-01T18:46:50.549Z,74.40
2017-11-01T18:49:18.004Z,74.80
2017-11-01T18:51:45.481Z,75.60
2017-11-01T18:54:12.933Z,75.00
2017-11-01T18:56:40.397Z,74.40
2017-11-01T18:59:07.877Z,74.80
2017-11-01T19:01:36.135Z,74.20
2017-11-01T19:04:03.599Z,74.20
2017-11-01T19:06:31.067Z,74.30
2017-11-01T19:08:58.485Z,74.20
2017-11-01T19:11:25.953Z,74.10
2017-11-01T19:13:53.413Z,74.60
2017-11-01T19:16:20.882Z,74.10
2017-11-01T19:18:48.326Z,74.10
2017-11-01T19:21:15.974Z,74.10
2017-11-01T19:23:43.433Z,74.60
2017-11-01T19:26:10.864Z,73.80
2017-11-01T19:28:38.312Z,74.10
2017-11-01T19:31:05.771Z,74.30
2017-11-01T19:33:33.271Z,74.90
2017-11-01T19:36:00.804Z,74.20
2017-11-01T19:38:28.267Z,74.00
2017-11-01T19:40:55.728Z,73.60
2017-11-01T19:43:23.193Z,73.40
2017-11-01T19:45:50.634Z,73.80
2017-11-01T19:48:18.097Z,74.20
2017-11-01T19:50:45.576Z,73.70
2017-11-01T19:53:13.034Z,74.10
2017-11-01T19:55:40.458Z,73.90
2017-11-01T19:58:07.953Z,74.10
2017-11-01T20:00:35.414Z,74.20
2017-11-01T20:03:02.872Z,74.30
2017-11-01T20:05:30.336Z,74.60
2017-11-01T20:07:57.777Z,74.40
2017-11-01T20:10:25.222Z,75.00
2017-11-01T20:12:52.681Z,75.70
2017-11-01T20:15:20.155Z,75.80
2017-11-01T20:17:48.451Z,76.40
2017-11-01T20:20:15.898Z,76.10
2017-11-01T20:22:43.343Z,76.20
2017-11-01T20:25:10.827Z,76.30
2017-11-01T20:27:38.276Z,76.30
2017-11-01T20:30:05.723Z,76.30
2017-11-01T20:32:33.596Z,75.90
2017-11-01T20:35:01.067Z,75.80
2017-11-01T20:37:28.525Z,76.10
2017-11-01T20:39:55.993Z,76.40
2017-11-01T20:42:23.429Z,76.50
2017-11-01T20:44:50.885Z,75.80
2017-11-01T20:47:19.087Z,76.10
2017-11-01T20:49:46.552Z,76.00
2017-11-01T20:52:14.319Z,76.00
2017-11-01T20:54:42.556Z,75.20
2017-11-01T20:57:10.173Z,75.20
2017-11-01T20:59:38.349Z,75.20
2017-11-01T21:02:05.841Z,75.20
2017-11-01T21:04:33.313Z,75.00
2017-11-01T21:07:00.805Z,75.50
2017-11-01T21:09:29.004Z,75.70
2017-11-01T21:11:56.440Z,75.70
2017-11-01T21:14:23.878Z,75.30
2017-11-01T21:16:51.333Z,74.90
2017-11-01T21:19:18.792Z,75.90
2017-11-01T21:21:46.343Z,75.10
2017-11-01T21:24:15.345Z,74.60
2017-11-01T21:26:42.825Z,74.70
2017-11-01T21:29:11.059Z,76.20
2017-11-01T21:31:38.540Z,76.10
2017-11-01T21:34:05.979Z,75.60
2017-11-01T21:36:33.441Z,74.90
2017-11-01T21:39:00.903Z,74.70
2017-11-01T21:41:28.370Z,74.60
2017-11-01T21:43:55.902Z,75.30
2017-11-01T21:46:23.517Z,74.60
2017-11-01T21:48:51.775Z,75.20
2017-11-01T21:51:19.237Z,75.20
2017-11-01T21:53:46.701Z,75.20
2017-11-01T21:56:14.443Z,75.00
2017-11-01T21:58:41.896Z,75.50
2017-11-01T22:01:09.353Z,75.60
2017-11-01T22:03:36.818Z,75.00
2017-11-01T22:06:04.297Z,75.70
2017-11-01T22:08:32.528Z,75.30
2017-11-01T22:10:59.954Z,75.30
2017-11-01T22:13:27.397Z,75.20
2017-11-01T22:15:55.636Z,75.60
2017-11-01T22:18:23.106Z,75.50
2017-11-01T22:20:50.569Z,75.60
2017-11-01T22:23:18.781Z,75.70
2017-11-01T22:25:46.225Z,74.90
2017-11-01T22:28:15.362Z,76.60
2017-11-01T22:30:42.796Z,75.70
2017-11-01T22:33:10.293Z,76.60
2017-11-01T22:35:37.761Z,76.60
2017-11-01T22:38:05.219Z,76.70
2017-11-01T22:40:32.679Z,76.60
2017-11-01T22:43:00.180Z,76.10
2017-11-01T22:45:27.650Z,76.40
2017-11-01T22:47:55.078Z,75.90
2017-11-01T22:50:23.287Z,76.60
2017-11-01T22:52:50.727Z,76.60
2017-11-01T22:55:18.168Z,76.30
2017-11-01T22:57:46.396Z,76.20
2017-11-01T23:00:14.607Z,76.20
2017-11-01T23:02:43.163Z,76.60
2017-11-01T23:05:10.582Z,76.20
2017-11-01T23:07:38.058Z,75.50
2017-11-01T23:10:05.490Z,75.60
2017-11-01T23:12:32.942Z,75.50
2017-11-01T23:15:00.403Z,75.90
2017-11-01T23:17:27.885Z,76.00
2017-11-01T23:19:55.321Z,75.90
2017-11-01T23:22:23.130Z,75.10
2017-11-01T23:24:50.573Z,75.90
2017-11-01T23:27:18.021Z,75.60
2017-11-01T23:29:45.470Z,75.30
2017-11-01T23:32:12.957Z,75.40
2017-11-01T23:34:40.393Z,76.40
2017-11-01T23:37:07.870Z,75.50
2017-11-01T23:39:35.314Z,75.20
2017-11-01T23:42:02.885Z,74.70
2017-11-01T23:44:30.348Z,74.40
2017-11-01T23:46:58.578Z,74.30
2017-11-01T23:49:26.034Z,74.40
2017-11-01T23:51:53.526Z,74.30
2017-11-01T23:54:20.970Z,74.40
2017-11-01T23:56:48.426Z,74.70
2017-11-01T23:59:15.890Z,75.40
